createdAt,value
2018-05-03T00:02:35.989Z,3.70
2018-05-03T00:07:39.234Z,3.57
2018-05-03T00:12:42.491Z,4.53
2018-05-03T00:17:45.763Z,3.63
2018-05-03T00:22:49.011Z,3.60
2018-05-03T00:27:52.276Z,2.27
2018-05-03T00:32:55.552Z,2.93
2018-05-03T00:37:58.799Z,2.73
2018-05-03T00:43:02.073Z,4.10
2018-05-03T00:48:05.613Z,3.03
2018-05-03T00:53:08.879Z,3.27
2018-05-03T00:58:12.155Z,1.83
2018-05-03T01:03:15.439Z,3.00
2018-05-03T01:08:18.703Z,2.73
2018-05-03T01:13:21.969Z,2.23
2018-05-03T01:18:25.233Z,3.23
2018-05-03T01:23:28.511Z,3.20
2018-05-03T01:28:31.767Z,2.30
2018-05-03T01:33:35.068Z,2.77
2018-05-03T01:38:39.096Z,2.57
2018-05-03T01:43:42.379Z,3.90
2018-05-03T01:48:45.667Z,2.13
2018-05-03T01:53:48.917Z,2.40
2018-05-03T01:58:52.953Z,2.63
2018-05-03T02:03:56.235Z,3.13
2018-05-03T02:08:59.500Z,5.80
2018-05-03T02:14:02.778Z,3.40
2018-05-03T02:19:06.035Z,3.10
2018-05-03T02:24:09.303Z,4.50
2018-05-03T02:29:12.571Z,6.57
2018-05-03T02:34:15.837Z,4.07
2018-05-03T02:39:19.111Z,3.30
2018-05-03T02:44:22.391Z,3.60
2018-05-03T02:49:25.634Z,5.27
2018-05-03T02:54:28.891Z,3.80
2018-05-03T02:59:44.002Z,3.50
2018-05-03T03:05:04.956Z,3.43
2018-05-03T03:10:36.194Z,3.03
2018-05-03T03:15:57.051Z,2.97
2018-05-03T03:21:18.124Z,2.80
2018-05-03T03:26:39.105Z,2.67
2018-05-03T03:32:13.855Z,2.90
2018-05-03T03:37:29.047Z,3.47
2018-05-03T03:48:15.384Z,3.00
2018-05-03T03:53:18.646Z,3.47
2018-05-03T03:58:21.899Z,4.40
2018-05-03T04:03:25.159Z,4.43
2018-05-03T04:08:28.477Z,3.33
2018-05-03T04:13:32.490Z,3.40
2018-05-03T04:18:47.746Z,3.23
2018-05-03T04:24:13.877Z,3.20
2018-05-03T04:29:17.097Z,3.77
2018-05-03T04:34:20.360Z,4.43
2018-05-03T04:39:24.397Z,4.50
2018-05-03T04:44:29.213Z,3.80
2018-05-03T04:49:32.468Z,4.37
2018-05-03T04:54:35.748Z,3.80
2018-05-03T04:59:39.048Z,3.90
2018-05-03T05:04:42.357Z,4.77
2018-05-03T05:09:45.608Z,4.53
2018-05-03T05:14:48.878Z,3.93
2018-05-03T05:19:52.124Z,3.27
2018-05-03T05:24:55.378Z,3.70
2018-05-03T05:29:58.635Z,3.93
2018-05-03T05:35:01.906Z,3.70
2018-05-03T05:40:05.183Z,5.20
2018-05-03T05:45:08.446Z,4.43
2018-05-03T05:50:11.871Z,4.00
2018-05-03T05:55:15.147Z,5.13
2018-05-03T06:00:18.419Z,4.80
2018-05-03T06:05:21.705Z,4.90
2018-05-03T06:10:25.110Z,5.00
2018-05-03T06:15:28.319Z,4.10
2018-05-03T06:20:31.571Z,5.03
2018-05-03T06:25:34.862Z,5.23
2018-05-03T06:30:38.224Z,5.57
2018-05-03T06:35:41.483Z,5.20
2018-05-03T06:40:44.735Z,5.23
2018-05-03T06:45:48.055Z,5.57
2018-05-03T06:50:51.373Z,4.87
2018-05-03T06:55:54.767Z,5.10
2018-05-03T07:00:58.844Z,5.23
2018-05-03T07:06:02.130Z,4.57
2018-05-03T07:11:05.433Z,5.00
2018-05-03T07:16:08.776Z,5.17
2018-05-03T07:21:12.052Z,5.27
2018-05-03T07:26:15.383Z,5.43
2018-05-03T07:31:19.618Z,5.07
2018-05-03T07:36:22.938Z,4.43
2018-05-03T07:41:26.289Z,4.97
2018-05-03T07:46:30.348Z,5.53
2018-05-03T07:51:33.632Z,4.57
2018-05-03T07:56:37.007Z,5.00
2018-05-03T08:01:40.977Z,4.70
2018-05-03T08:06:44.260Z,4.63
2018-05-03T08:11:47.552Z,5.40
2018-05-03T08:16:50.877Z,9.60
2018-05-03T08:21:54.151Z,5.23
2018-05-03T08:26:57.469Z,5.77
2018-05-03T08:32:00.731Z,8.10
2018-05-03T08:37:03.995Z,5.43
2018-05-03T08:42:08.045Z,4.43
2018-05-03T08:47:12.231Z,4.53
2018-05-03T08:52:15.468Z,4.23
2018-05-03T08:57:19.644Z,4.50
2018-05-03T09:02:22.907Z,3.50
2018-05-03T09:07:26.178Z,2.73
2018-05-03T09:12:29.441Z,3.07
2018-05-03T09:17:32.792Z,3.50
2018-05-03T09:22:36.072Z,2.67
2018-05-03T09:27:39.328Z,2.87
2018-05-03T09:32:42.610Z,2.83
2018-05-03T09:37:45.855Z,3.03
2018-05-03T09:42:49.172Z,3.00
2018-05-03T09:47:52.429Z,2.60
2018-05-03T09:52:55.743Z,2.43
2018-05-03T09:57:59.013Z,2.60
2018-05-03T10:03:03.131Z,3.50
2018-05-03T10:08:07.163Z,2.67
2018-05-03T10:13:10.598Z,2.77
2018-05-03T10:18:13.818Z,2.80
2018-05-03T10:23:17.076Z,2.70
2018-05-03T10:28:20.337Z,2.60
2018-05-03T10:33:23.600Z,2.57
2018-05-03T10:38:27.632Z,2.17
2018-05-03T10:43:30.899Z,3.20
2018-05-03T10:48:34.165Z,2.93
2018-05-03T10:53:37.447Z,3.07
2018-05-03T10:58:40.709Z,2.87
2018-05-03T11:03:43.968Z,2.70
2018-05-03T11:08:48.004Z,2.33
2018-05-03T11:13:51.287Z,2.43
2018-05-03T11:18:54.571Z,2.47
2018-05-03T11:23:57.839Z,2.27
2018-05-03T11:29:01.855Z,2.13
2018-05-03T11:34:05.882Z,2.37
2018-05-03T11:39:09.147Z,2.20
2018-05-03T11:44:12.429Z,2.30
2018-05-03T11:49:15.700Z,2.10
2018-05-03T11:54:19.731Z,2.17
2018-05-03T11:59:23.007Z,1.73
2018-05-03T12:04:26.243Z,1.90
2018-05-03T12:09:30.124Z,2.00
2018-05-03T12:14:33.406Z,1.83
2018-05-03T12:19:36.658Z,2.00
2018-05-03T12:24:39.919Z,2.20
2018-05-03T12:29:43.171Z,2.60
2018-05-03T12:34:46.427Z,2.30
2018-05-03T12:39:49.686Z,2.00
2018-05-03T12:44:52.936Z,2.43
2018-05-03T12:49:56.193Z,1.97
2018-05-03T12:54:59.448Z,2.30
2018-05-03T13:00:02.704Z,2.27
2018-05-03T13:05:05.990Z,2.00
2018-05-03T13:10:09.645Z,2.33
2018-05-03T13:15:13.684Z,2.13
2018-05-03T13:20:17.040Z,2.00
2018-05-03T13:25:21.513Z,2.30
2018-05-03T13:30:24.820Z,2.00
2018-05-03T13:35:28.115Z,2.40
2018-05-03T13:40:31.390Z,2.50
2018-05-03T13:45:34.639Z,2.17
2018-05-03T13:50:37.912Z,2.70
2018-05-03T13:55:41.238Z,2.43
2018-05-03T14:00:44.552Z,2.10
2018-05-03T14:05:48.550Z,2.50
2018-05-03T14:10:51.830Z,2.50
2018-05-03T14:15:55.128Z,2.50
2018-05-03T14:20:58.502Z,1.87
2018-05-03T14:26:01.702Z,2.50
2018-05-03T14:31:04.967Z,2.37
2018-05-03T14:36:08.261Z,2.27
2018-05-03T14:41:11.526Z,1.60
2018-05-03T14:46:14.801Z,1.23
2018-05-03T14:51:18.064Z,1.47
2018-05-03T14:56:21.339Z,1.80
2018-05-03T15:01:24.620Z,1.70
2018-05-03T15:06:27.948Z,1.40
2018-05-03T15:11:31.136Z,1.63
2018-05-03T15:16:34.537Z,1.60
2018-05-03T15:21:38.627Z,1.40
2018-05-03T15:26:41.951Z,1.73
2018-05-03T15:31:45.239Z,1.70
2018-05-03T15:36:48.512Z,1.63
2018-05-03T15:41:51.791Z,1.50
2018-05-03T15:46:55.064Z,2.00
2018-05-03T15:51:58.340Z,1.47
2018-05-03T15:57:01.640Z,1.47
2018-05-03T16:02:05.671Z,2.73
2018-05-03T16:07:09.691Z,2.13
2018-05-03T16:12:12.971Z,2.00
2018-05-03T16:17:16.425Z,2.13
2018-05-03T16:22:19.697Z,1.93
2018-05-03T16:27:22.962Z,2.07
2018-05-03T16:32:26.231Z,1.80
2018-05-03T16:37:29.487Z,1.77
2018-05-03T16:42:33.668Z,1.63
2018-05-03T16:47:37.028Z,1.57
2018-05-03T16:52:40.295Z,1.93
2018-05-03T16:57:43.566Z,1.40
2018-05-03T17:02:46.827Z,1.80
2018-05-03T17:07:50.137Z,1.67
2018-05-03T17:12:53.433Z,1.50
2018-05-03T17:17:56.727Z,1.90
2018-05-03T17:22:59.998Z,2.10
2018-05-03T17:28:04.068Z,7.03
2018-05-03T17:33:07.367Z,10.67
2018-05-03T17:38:10.669Z,5.63
2018-05-03T17:43:13.977Z,16.30
2018-05-03T17:48:17.276Z,8.23
2018-05-03T17:53:20.559Z,7.13
2018-05-03T17:58:23.947Z,5.37
2018-05-03T18:03:27.204Z,3.80
2018-05-03T18:08:30.473Z,2.70
2018-05-03T18:13:33.736Z,2.63
2018-05-03T18:18:37.166Z,2.03
2018-05-03T18:23:40.447Z,2.07
2018-05-03T18:28:43.721Z,1.50
2018-05-03T18:33:47.785Z,1.63
2018-05-03T18:38:51.049Z,1.53
2018-05-03T18:43:55.135Z,1.97
2018-05-03T18:48:58.420Z,1.30
2018-05-03T18:54:01.677Z,1.63
2018-05-03T18:59:05.729Z,1.67
2018-05-03T19:04:08.992Z,1.43
2018-05-03T19:09:12.258Z,1.60
2018-05-03T19:14:15.513Z,1.63
2018-05-03T19:19:18.943Z,1.40
2018-05-03T19:24:23.007Z,1.53
2018-05-03T19:29:26.413Z,1.60
2018-05-03T19:34:29.701Z,1.60
2018-05-03T19:39:33.020Z,1.60
2018-05-03T19:44:36.343Z,1.70
2018-05-03T19:49:39.604Z,1.70
2018-05-03T19:54:42.907Z,2.00
2018-05-03T19:59:46.996Z,3.05
2018-05-03T20:04:50.288Z,2.63
2018-05-03T20:09:53.599Z,1.73
2018-05-03T20:14:56.884Z,1.50
2018-05-03T20:20:00.412Z,1.50
2018-05-03T20:25:03.668Z,1.97
2018-05-03T20:30:07.700Z,1.70
2018-05-03T20:35:11.755Z,1.50
2018-05-03T20:40:15.952Z,1.93
2018-05-03T20:45:19.218Z,2.03
2018-05-03T20:50:22.470Z,1.90
2018-05-03T20:55:28.051Z,2.00
2018-05-03T21:00:32.163Z,1.87
2018-05-03T21:05:36.195Z,2.00
2018-05-03T21:10:40.358Z,2.47
2018-05-03T21:15:43.715Z,2.30
2018-05-03T21:20:47.766Z,1.87
2018-05-03T21:25:51.040Z,1.83
2018-05-03T21:30:54.320Z,2.13
2018-05-03T21:36:01.683Z,1.90
2018-05-03T21:41:05.974Z,1.73
2018-05-03T21:46:09.315Z,1.93
2018-05-03T21:51:12.630Z,1.70
2018-05-03T21:56:15.932Z,1.77
2018-05-03T22:01:19.972Z,1.60
2018-05-03T22:06:23.999Z,1.80
2018-05-03T22:11:27.324Z,1.83
2018-05-03T22:16:30.624Z,2.20
2018-05-03T22:21:33.893Z,1.70
2018-05-03T22:26:37.151Z,1.30
2018-05-03T22:31:40.403Z,1.33
2018-05-03T22:36:43.672Z,1.63
2018-05-03T22:41:46.945Z,1.70
2018-05-03T22:46:50.216Z,1.57
2018-05-03T22:51:54.192Z,1.77
2018-05-03T22:56:57.470Z,1.50
2018-05-03T23:02:00.751Z,1.27
2018-05-03T23:07:04.023Z,1.60
2018-05-03T23:12:07.307Z,1.70
2018-05-03T23:17:10.572Z,1.73
2018-05-03T23:22:14.655Z,1.60
2018-05-03T23:27:17.929Z,2.17
2018-05-03T23:32:21.183Z,2.00
2018-05-03T23:37:24.448Z,2.10
2018-05-03T23:42:27.711Z,2.03
2018-05-03T23:47:30.975Z,1.80
2018-05-03T23:52:34.240Z,1.60
2018-05-03T23:57:37.499Z,2.50
